sensor_id;sensor_type;location;lat;lon;timestamp;temperature;humidity
1107;DHT22;540;49.448;8.612;2022-08-05T00:00:53;30.20;43.80
1107;DHT22;540;49.448;8.612;2022-08-05T00:03:42;30.20;44.30
1107;DHT22;540;49.448;8.612;2022-08-05T00:06:12;30.10;44.40
1107;DHT22;540;49.448;8.612;2022-08-05T00:08:58;30.00;44.60
1107;DHT22;540;49.448;8.612;2022-08-05T00:11:27;29.90;44.90
1107;DHT22;540;49.448;8.612;2022-08-05T00:14:00;29.80;45.30
1107;DHT22;540;49.448;8.612;2022-08-05T00:16:38;29.70;45.70
1107;DHT22;540;49.448;8.612;2022-08-05T00:19:19;29.40;46.20
1107;DHT22;540;49.448;8.612;2022-08-05T00:21:49;29.50;46.70
1107;DHT22;540;49.448;8.612;2022-08-05T00:24:19;29.40;46.90
1107;DHT22;540;49.448;8.612;2022-08-05T00:26:56;29.20;47.40
1107;DHT22;540;49.448;8.612;2022-08-05T00:29:24;29.10;47.80
1107;DHT22;540;49.448;8.612;2022-08-05T00:32:03;29.10;48.20
1107;DHT22;540;49.448;8.612;2022-08-05T00:34:41;29.00;48.70
1107;DHT22;540;49.448;8.612;2022-08-05T00:37:30;28.90;49.20
1107;DHT22;540;49.448;8.612;2022-08-05T00:40:19;28.80;49.60
1107;DHT22;540;49.448;8.612;2022-08-05T00:42:55;28.70;50.40
1107;DHT22;540;49.448;8.612;2022-08-05T00:45:23;28.60;51.10
1107;DHT22;540;49.448;8.612;2022-08-05T00:48:09;28.50;52.00
1107;DHT22;540;49.448;8.612;2022-08-05T00:50:38;28.50;53.10
1107;DHT22;540;49.448;8.612;2022-08-05T00:53:12;28.40;53.00
1107;DHT22;540;49.448;8.612;2022-08-05T00:56:02;28.40;53.20
1107;DHT22;540;49.448;8.612;2022-08-05T00:58:30;28.40;53.50
1107;DHT22;540;49.448;8.612;2022-08-05T01:00:58;28.30;53.40
1107;DHT22;540;49.448;8.612;2022-08-05T01:03:26;28.30;53.40
1107;DHT22;540;49.448;8.612;2022-08-05T01:05:59;28.30;53.80
1107;DHT22;540;49.448;8.612;2022-08-05T01:08:32;28.20;54.00
1107;DHT22;540;49.448;8.612;2022-08-05T01:11:15;28.20;54.30
1107;DHT22;540;49.448;8.612;2022-08-05T01:13:56;28.10;54.70
1107;DHT22;540;49.448;8.612;2022-08-05T01:16:31;28.00;55.00
1107;DHT22;540;49.448;8.612;2022-08-05T01:19:22;27.90;55.50
1107;DHT22;540;49.448;8.612;2022-08-05T01:22:19;27.90;55.80
1107;DHT22;540;49.448;8.612;2022-08-05T01:28:16;27.90;56.20
1107;DHT22;540;49.448;8.612;2022-08-05T01:30:49;27.80;56.60
1107;DHT22;540;49.448;8.612;2022-08-05T01:33:23;27.70;57.00
1107;DHT22;540;49.448;8.612;2022-08-05T01:36:08;27.60;57.30
1107;DHT22;540;49.448;8.612;2022-08-05T01:38:43;27.60;57.80
1107;DHT22;540;49.448;8.612;2022-08-05T01:41:17;27.60;58.00
1107;DHT22;540;49.448;8.612;2022-08-05T01:43:50;27.60;57.90
1107;DHT22;540;49.448;8.612;2022-08-05T01:46:20;27.70;57.80
1107;DHT22;540;49.448;8.612;2022-08-05T01:49:10;27.70;57.80
1107;DHT22;540;49.448;8.612;2022-08-05T01:51:52;27.80;57.70
1107;DHT22;540;49.448;8.612;2022-08-05T01:54:22;27.80;57.50
1107;DHT22;540;49.448;8.612;2022-08-05T01:56:54;27.80;57.60
1107;DHT22;540;49.448;8.612;2022-08-05T01:59:45;27.80;57.60
1107;DHT22;540;49.448;8.612;2022-08-05T02:02:16;27.80;57.90
1107;DHT22;540;49.448;8.612;2022-08-05T02:04:56;27.70;58.50
1107;DHT22;540;49.448;8.612;2022-08-05T02:07:25;27.80;59.00
1107;DHT22;540;49.448;8.612;2022-08-05T02:09:56;27.90;58.60
1107;DHT22;540;49.448;8.612;2022-08-05T02:12:32;27.90;58.20
1107;DHT22;540;49.448;8.612;2022-08-05T02:15:04;28.10;57.70
1107;DHT22;540;49.448;8.612;2022-08-05T02:17:40;28.20;57.30
1107;DHT22;540;49.448;8.612;2022-08-05T02:20:37;28.20;57.00
1107;DHT22;540;49.448;8.612;2022-08-05T02:23:09;28.30;56.70
1107;DHT22;540;49.448;8.612;2022-08-05T02:25:42;28.30;56.70
1107;DHT22;540;49.448;8.612;2022-08-05T02:28:21;28.30;56.40
1107;DHT22;540;49.448;8.612;2022-08-05T02:31:01;28.30;56.20
1107;DHT22;540;49.448;8.612;2022-08-05T02:33:35;28.20;56.10
1107;DHT22;540;49.448;8.612;2022-08-05T02:36:09;28.20;56.00
1107;DHT22;540;49.448;8.612;2022-08-05T02:38:42;28.30;56.00
1107;DHT22;540;49.448;8.612;2022-08-05T02:41:20;28.20;56.30
1107;DHT22;540;49.448;8.612;2022-08-05T02:43:50;28.10;56.60
1107;DHT22;540;49.448;8.612;2022-08-05T02:46:34;28.20;56.80
1107;DHT22;540;49.448;8.612;2022-08-05T02:49:23;28.20;56.70
1107;DHT22;540;49.448;8.612;2022-08-05T02:51:53;28.10;56.80
1107;DHT22;540;49.448;8.612;2022-08-05T02:54:30;28.10;56.80
1107;DHT22;540;49.448;8.612;2022-08-05T02:57:03;28.20;56.70
1107;DHT22;540;49.448;8.612;2022-08-05T02:59:51;28.10;56.90
1107;DHT22;540;49.448;8.612;2022-08-05T03:02:24;28.10;57.10
1107;DHT22;540;49.448;8.612;2022-08-05T03:04:56;28.00;57.20
1107;DHT22;540;49.448;8.612;2022-08-05T03:07:25;28.10;57.30
1107;DHT22;540;49.448;8.612;2022-08-05T03:10:14;28.10;57.30
1107;DHT22;540;49.448;8.612;2022-08-05T03:12:51;28.10;57.30
1107;DHT22;540;49.448;8.612;2022-08-05T03:15:19;28.00;57.40
1107;DHT22;540;49.448;8.612;2022-08-05T03:17:51;28.00;57.30
1107;DHT22;540;49.448;8.612;2022-08-05T03:20:22;28.10;57.20
1107;DHT22;540;49.448;8.612;2022-08-05T03:22:50;28.10;57.30
1107;DHT22;540;49.448;8.612;2022-08-05T03:25:22;28.10;57.20
1107;DHT22;540;49.448;8.612;2022-08-05T03:28:11;27.90;57.70
1107;DHT22;540;49.448;8.612;2022-08-05T03:30:39;27.70;58.60
1107;DHT22;540;49.448;8.612;2022-08-05T03:33:09;27.60;59.90
1107;DHT22;540;49.448;8.612;2022-08-05T03:35:38;27.50;62.10
1107;DHT22;540;49.448;8.612;2022-08-05T03:38:10;27.50;61.50
1107;DHT22;540;49.448;8.612;2022-08-05T03:40:40;27.40;61.10
1107;DHT22;540;49.448;8.612;2022-08-05T03:43:13;27.30;60.90
1107;DHT22;540;49.448;8.612;2022-08-05T03:46:01;27.30;60.90
1107;DHT22;540;49.448;8.612;2022-08-05T03:48:31;27.30;61.10
1107;DHT22;540;49.448;8.612;2022-08-05T03:51:09;27.40;63.80
1107;DHT22;540;49.448;8.612;2022-08-05T03:54:02;27.50;66.70
1107;DHT22;540;49.448;8.612;2022-08-05T03:56:51;27.50;66.10
1107;DHT22;540;49.448;8.612;2022-08-05T03:59:27;27.50;66.80
1107;DHT22;540;49.448;8.612;2022-08-05T04:02:14;27.60;67.50
1107;DHT22;540;49.448;8.612;2022-08-05T04:05:07;27.60;68.30
1107;DHT22;540;49.448;8.612;2022-08-05T04:07:37;27.60;68.90
1107;DHT22;540;49.448;8.612;2022-08-05T04:10:23;27.60;69.30
1107;DHT22;540;49.448;8.612;2022-08-05T04:12:54;27.50;66.10
1107;DHT22;540;49.448;8.612;2022-08-05T04:15:25;27.40;64.30
1107;DHT22;540;49.448;8.612;2022-08-05T04:18:01;27.30;65.00
1107;DHT22;540;49.448;8.612;2022-08-05T04:20:34;27.30;65.20
1107;DHT22;540;49.448;8.612;2022-08-05T04:23:02;27.10;65.70
1107;DHT22;540;49.448;8.612;2022-08-05T04:25:29;27.20;66.40
1107;DHT22;540;49.448;8.612;2022-08-05T04:28:17;27.10;67.10
1107;DHT22;540;49.448;8.612;2022-08-05T04:30:56;27.20;67.20
1107;DHT22;540;49.448;8.612;2022-08-05T04:33:27;27.10;67.10
1107;DHT22;540;49.448;8.612;2022-08-05T04:36:16;27.00;66.60
1107;DHT22;540;49.448;8.612;2022-08-05T04:39:04;27.00;65.80
1107;DHT22;540;49.448;8.612;2022-08-05T04:41:32;27.00;64.70
1107;DHT22;540;49.448;8.612;2022-08-05T04:44:04;27.00;63.90
1107;DHT22;540;49.448;8.612;2022-08-05T04:46:35;26.90;64.10
1107;DHT22;540;49.448;8.612;2022-08-05T04:49:03;27.00;63.70
1107;DHT22;540;49.448;8.612;2022-08-05T04:51:39;27.00;63.40
1107;DHT22;540;49.448;8.612;2022-08-05T04:54:08;27.00;63.00
1107;DHT22;540;49.448;8.612;2022-08-05T04:56:37;27.00;63.20
1107;DHT22;540;49.448;8.612;2022-08-05T04:59:05;26.90;63.90
1107;DHT22;540;49.448;8.612;2022-08-05T05:01:53;26.70;64.80
1107;DHT22;540;49.448;8.612;2022-08-05T05:04:43;26.60;65.60
1107;DHT22;540;49.448;8.612;2022-08-05T05:07:17;26.50;66.60
1107;DHT22;540;49.448;8.612;2022-08-05T05:09:54;26.50;67.10
1107;DHT22;540;49.448;8.612;2022-08-05T05:12:22;26.60;66.70
1107;DHT22;540;49.448;8.612;2022-08-05T05:14:53;26.60;66.70
1107;DHT22;540;49.448;8.612;2022-08-05T05:17:21;26.60;67.10
1107;DHT22;540;49.448;8.612;2022-08-05T05:20:10;26.50;67.20
1107;DHT22;540;49.448;8.612;2022-08-05T05:22:40;26.70;67.10
1107;DHT22;540;49.448;8.612;2022-08-05T05:25:10;26.50;68.10
1107;DHT22;540;49.448;8.612;2022-08-05T05:27:43;26.30;69.80
1107;DHT22;540;49.448;8.612;2022-08-05T05:30:22;26.40;69.70
1107;DHT22;540;49.448;8.612;2022-08-05T05:32:55;26.50;69.10
1107;DHT22;540;49.448;8.612;2022-08-05T05:35:29;26.50;68.50
1107;DHT22;540;49.448;8.612;2022-08-05T05:38:05;26.60;68.90
1107;DHT22;540;49.448;8.612;2022-08-05T05:40:38;26.50;69.10
1107;DHT22;540;49.448;8.612;2022-08-05T05:43:17;26.30;70.00
1107;DHT22;540;49.448;8.612;2022-08-05T05:46:05;26.40;69.50
1107;DHT22;540;49.448;8.612;2022-08-05T05:48:41;26.50;69.60
1107;DHT22;540;49.448;8.612;2022-08-05T05:51:09;26.70;69.10
1107;DHT22;540;49.448;8.612;2022-08-05T05:53:42;26.60;68.60
1107;DHT22;540;49.448;8.612;2022-08-05T05:56:19;26.80;67.60
1107;DHT22;540;49.448;8.612;2022-08-05T05:58:57;26.90;66.50
1107;DHT22;540;49.448;8.612;2022-08-05T06:01:31;27.20;65.20
1107;DHT22;540;49.448;8.612;2022-08-05T06:04:04;27.30;64.40
1107;DHT22;540;49.448;8.612;2022-08-05T06:06:32;27.40;64.50
1107;DHT22;540;49.448;8.612;2022-08-05T06:09:02;27.60;62.70
1107;DHT22;540;49.448;8.612;2022-08-05T06:11:30;27.50;62.40
1107;DHT22;540;49.448;8.612;2022-08-05T06:13:58;27.60;62.20
1107;DHT22;540;49.448;8.612;2022-08-05T06:16:27;27.70;62.40
1107;DHT22;540;49.448;8.612;2022-08-05T06:19:03;27.60;62.60
1107;DHT22;540;49.448;8.612;2022-08-05T06:21:34;27.50;62.50
1107;DHT22;540;49.448;8.612;2022-08-05T06:24:10;27.30;62.40
1107;DHT22;540;49.448;8.612;2022-08-05T06:26:40;27.30;62.50
1107;DHT22;540;49.448;8.612;2022-08-05T06:29:18;27.60;62.80
1107;DHT22;540;49.448;8.612;2022-08-05T06:32:06;27.90;61.30
1107;DHT22;540;49.448;8.612;2022-08-05T06:34:52;27.90;59.90
1107;DHT22;540;49.448;8.612;2022-08-05T06:37:23;28.10;59.70
1107;DHT22;540;49.448;8.612;2022-08-05T06:40:13;27.90;59.90
1107;DHT22;540;49.448;8.612;2022-08-05T06:42:47;28.10;59.40
1107;DHT22;540;49.448;8.612;2022-08-05T06:45:18;28.20;59.30
1107;DHT22;540;49.448;8.612;2022-08-05T06:48:06;28.20;59.40
1107;DHT22;540;49.448;8.612;2022-08-05T06:50:54;28.20;59.30
1107;DHT22;540;49.448;8.612;2022-08-05T06:53:22;28.90;57.40
1107;DHT22;540;49.448;8.612;2022-08-05T06:55:56;29.60;55.20
1107;DHT22;540;49.448;8.612;2022-08-05T06:58:24;30.30;53.10
1107;DHT22;540;49.448;8.612;2022-08-05T07:00:57;30.70;51.40
1107;DHT22;540;49.448;8.612;2022-08-05T07:03:25;31.50;49.90
1107;DHT22;540;49.448;8.612;2022-08-05T07:05:59;31.80;48.60
1107;DHT22;540;49.448;8.612;2022-08-05T07:08:40;32.20;46.80
1107;DHT22;540;49.448;8.612;2022-08-05T07:11:14;33.00;45.30
1107;DHT22;540;49.448;8.612;2022-08-05T07:13:47;33.90;43.20
1107;DHT22;540;49.448;8.612;2022-08-05T07:16:41;34.10;41.80
1107;DHT22;540;49.448;8.612;2022-08-05T07:19:38;34.30;41.30
1107;DHT22;540;49.448;8.612;2022-08-05T07:22:26;34.50;40.60
1107;DHT22;540;49.448;8.612;2022-08-05T07:24:59;34.80;40.00
1107;DHT22;540;49.448;8.612;2022-08-05T07:27:50;35.20;38.50
1107;DHT22;540;49.448;8.612;2022-08-05T07:30:28;35.20;38.00
1107;DHT22;540;49.448;8.612;2022-08-05T07:32:59;35.10;38.40
1107;DHT22;540;49.448;8.612;2022-08-05T07:35:31;34.80;38.80
1107;DHT22;540;49.448;8.612;2022-08-05T07:38:19;34.30;38.50
1107;DHT22;540;49.448;8.612;2022-08-05T07:41:02;33.40;39.20
1107;DHT22;540;49.448;8.612;2022-08-05T07:43:52;32.50;40.50
1107;DHT22;540;49.448;8.612;2022-08-05T07:46:23;32.00;41.70
1107;DHT22;540;49.448;8.612;2022-08-05T07:48:53;32.20;41.90
1107;DHT22;540;49.448;8.612;2022-08-05T07:51:32;32.40;41.80
1107;DHT22;540;49.448;8.612;2022-08-05T07:54:07;33.10;40.10
1107;DHT22;540;49.448;8.612;2022-08-05T07:56:37;32.90;40.10
1107;DHT22;540;49.448;8.612;2022-08-05T07:59:26;32.70;40.50
1107;DHT22;540;49.448;8.612;2022-08-05T08:02:06;32.60;40.80
1107;DHT22;540;49.448;8.612;2022-08-05T08:04:44;32.00;41.40
1107;DHT22;540;49.448;8.612;2022-08-05T08:07:12;30.90;42.80
1107;DHT22;540;49.448;8.612;2022-08-05T08:09:41;30.30;45.00
1107;DHT22;540;49.448;8.612;2022-08-05T08:12:09;29.70;45.30
1107;DHT22;540;49.448;8.612;2022-08-05T08:15:00;29.50;45.60
1107;DHT22;540;49.448;8.612;2022-08-05T08:17:30;29.30;45.70
1107;DHT22;540;49.448;8.612;2022-08-05T08:19:58;29.30;45.90
1107;DHT22;540;49.448;8.612;2022-08-05T08:22:50;29.10;46.20
1107;DHT22;540;49.448;8.612;2022-08-05T08:25:19;29.00;46.50
1107;DHT22;540;49.448;8.612;2022-08-05T08:28:06;28.80;47.90
1107;DHT22;540;49.448;8.612;2022-08-05T08:30:45;28.70;47.70
1107;DHT22;540;49.448;8.612;2022-08-05T08:33:15;28.80;47.90
1107;DHT22;540;49.448;8.612;2022-08-05T08:35:45;28.80;47.90
1107;DHT22;540;49.448;8.612;2022-08-05T08:38:23;28.80;48.20
1107;DHT22;540;49.448;8.612;2022-08-05T08:41:04;28.80;48.60
1107;DHT22;540;49.448;8.612;2022-08-05T08:43:34;28.90;48.90
1107;DHT22;540;49.448;8.612;2022-08-05T08:46:26;29.30;48.30
1107;DHT22;540;49.448;8.612;2022-08-05T08:48:54;29.30;48.20
1107;DHT22;540;49.448;8.612;2022-08-05T08:51:47;29.40;50.00
1107;DHT22;540;49.448;8.612;2022-08-05T08:54:32;29.40;51.10
1107;DHT22;540;49.448;8.612;2022-08-05T08:57:04;29.50;49.60
1107;DHT22;540;49.448;8.612;2022-08-05T08:59:37;29.60;48.30
1107;DHT22;540;49.448;8.612;2022-08-05T09:02:14;30.00;46.20
1107;DHT22;540;49.448;8.612;2022-08-05T09:04:45;30.30;44.10
1107;DHT22;540;49.448;8.612;2022-08-05T09:07:33;30.70;43.80
1107;DHT22;540;49.448;8.612;2022-08-05T09:10:21;31.50;44.80
1107;DHT22;540;49.448;8.612;2022-08-05T09:12:55;32.50;43.20
1107;DHT22;540;49.448;8.612;2022-08-05T09:15:31;33.40;40.20
1107;DHT22;540;49.448;8.612;2022-08-05T09:18:06;34.00;36.80
1107;DHT22;540;49.448;8.612;2022-08-05T09:20:35;34.20;35.90
1107;DHT22;540;49.448;8.612;2022-08-05T09:23:11;34.60;35.40
1107;DHT22;540;49.448;8.612;2022-08-05T09:25:48;35.50;33.60
1107;DHT22;540;49.448;8.612;2022-08-05T09:28:30;36.10;32.50
1107;DHT22;540;49.448;8.612;2022-08-05T09:31:02;36.60;32.50
1107;DHT22;540;49.448;8.612;2022-08-05T09:33:53;37.40;31.20
1107;DHT22;540;49.448;8.612;2022-08-05T09:36:22;37.90;29.70
1107;DHT22;540;49.448;8.612;2022-08-05T09:38:57;38.50;29.40
1107;DHT22;540;49.448;8.612;2022-08-05T09:41:25;39.40;28.20
1107;DHT22;540;49.448;8.612;2022-08-05T09:43:58;39.20;28.10
1107;DHT22;540;49.448;8.612;2022-08-05T09:46:28;40.20;26.90
1107;DHT22;540;49.448;8.612;2022-08-05T09:48:59;41.00;25.70
1107;DHT22;540;49.448;8.612;2022-08-05T09:51:44;41.80;24.70
1107;DHT22;540;49.448;8.612;2022-08-05T09:54:17;41.80;24.10
1107;DHT22;540;49.448;8.612;2022-08-05T09:56:55;41.20;23.80
1107;DHT22;540;49.448;8.612;2022-08-05T09:59:27;40.90;24.40
1107;DHT22;540;49.448;8.612;2022-08-05T10:02:02;40.50;24.10
1107;DHT22;540;49.448;8.612;2022-08-05T10:04:35;39.80;24.90
1107;DHT22;540;49.448;8.612;2022-08-05T10:07:06;39.50;25.50
1107;DHT22;540;49.448;8.612;2022-08-05T10:09:54;39.10;25.40
1107;DHT22;540;49.448;8.612;2022-08-05T10:12:43;39.10;25.50
1107;DHT22;540;49.448;8.612;2022-08-05T10:15:21;39.00;26.20
1107;DHT22;540;49.448;8.612;2022-08-05T10:18:07;39.40;25.80
1107;DHT22;540;49.448;8.612;2022-08-05T10:20:41;39.50;26.00
1107;DHT22;540;49.448;8.612;2022-08-05T10:23:16;40.00;25.50
1107;DHT22;540;49.448;8.612;2022-08-05T10:26:06;40.20;25.10
1107;DHT22;540;49.448;8.612;2022-08-05T10:28:40;40.10;25.30
1107;DHT22;540;49.448;8.612;2022-08-05T10:31:11;40.20;25.00
1107;DHT22;540;49.448;8.612;2022-08-05T10:33:59;40.10;25.00
1107;DHT22;540;49.448;8.612;2022-08-05T10:36:29;40.30;25.10
1107;DHT22;540;49.448;8.612;2022-08-05T10:39:03;39.90;25.50
1107;DHT22;540;49.448;8.612;2022-08-05T10:41:45;39.00;26.20
1107;DHT22;540;49.448;8.612;2022-08-05T10:44:17;38.90;26.70
1107;DHT22;540;49.448;8.612;2022-08-05T10:46:46;39.10;26.80
1107;DHT22;540;49.448;8.612;2022-08-05T10:49:20;39.40;26.50
1107;DHT22;540;49.448;8.612;2022-08-05T10:52:00;39.30;26.70
1107;DHT22;540;49.448;8.612;2022-08-05T10:54:45;39.20;26.90
1107;DHT22;540;49.448;8.612;2022-08-05T10:57:25;38.80;27.30
1107;DHT22;540;49.448;8.612;2022-08-05T11:00:07;38.80;27.50
1107;DHT22;540;49.448;8.612;2022-08-05T11:03:09;38.20;28.30
1107;DHT22;540;49.448;8.612;2022-08-05T11:06:06;38.30;28.60
1107;DHT22;540;49.448;8.612;2022-08-05T11:09:18;38.60;28.30
1107;DHT22;540;49.448;8.612;2022-08-05T11:12:41;37.20;29.80
1107;DHT22;540;49.448;8.612;2022-08-05T11:15:18;36.80;31.20
1107;DHT22;540;49.448;8.612;2022-08-05T11:17:47;36.90;31.30
1107;DHT22;540;49.448;8.612;2022-08-05T11:20:34;36.90;30.90
1107;DHT22;540;49.448;8.612;2022-08-05T11:23:33;37.00;31.40
1107;DHT22;540;49.448;8.612;2022-08-05T11:26:24;37.40;30.90
1107;DHT22;540;49.448;8.612;2022-08-05T11:29:00;37.50;30.80
1107;DHT22;540;49.448;8.612;2022-08-05T11:31:40;37.50;31.00
1107;DHT22;540;49.448;8.612;2022-08-05T11:34:37;37.40;31.10
1107;DHT22;540;49.448;8.612;2022-08-05T11:37:05;37.10;31.40
1107;DHT22;540;49.448;8.612;2022-08-05T11:39:53;36.90;32.00
1107;DHT22;540;49.448;8.612;2022-08-05T11:42:31;36.40;32.40
1107;DHT22;540;49.448;8.612;2022-08-05T11:45:04;36.30;33.40
1107;DHT22;540;49.448;8.612;2022-08-05T11:47:53;36.00;33.90
1107;DHT22;540;49.448;8.612;2022-08-05T11:50:21;35.80;34.30
1107;DHT22;540;49.448;8.612;2022-08-05T11:52:50;35.70;34.80
1107;DHT22;540;49.448;8.612;2022-08-05T11:55:23;35.80;34.70
1107;DHT22;540;49.448;8.612;2022-08-05T11:58:03;35.80;34.80
1107;DHT22;540;49.448;8.612;2022-08-05T12:00:37;35.60;35.70
1107;DHT22;540;49.448;8.612;2022-08-05T12:03:16;35.40;35.80
1107;DHT22;540;49.448;8.612;2022-08-05T12:06:01;35.50;35.90
1107;DHT22;540;49.448;8.612;2022-08-05T12:08:42;35.30;36.00
1107;DHT22;540;49.448;8.612;2022-08-05T12:11:19;35.20;36.20
1107;DHT22;540;49.448;8.612;2022-08-05T12:13:56;35.50;36.00
1107;DHT22;540;49.448;8.612;2022-08-05T12:16:32;35.40;35.70
1107;DHT22;540;49.448;8.612;2022-08-05T12:19:04;35.40;35.60
1107;DHT22;540;49.448;8.612;2022-08-05T12:21:35;35.50;35.50
1107;DHT22;540;49.448;8.612;2022-08-05T12:24:06;35.40;36.20
1107;DHT22;540;49.448;8.612;2022-08-05T12:26:36;35.30;36.20
1107;DHT22;540;49.448;8.612;2022-08-05T12:29:07;35.10;36.30
1107;DHT22;540;49.448;8.612;2022-08-05T12:31:46;35.00;36.80
1107;DHT22;540;49.448;8.612;2022-08-05T12:34:21;34.80;37.40
1107;DHT22;540;49.448;8.612;2022-08-05T12:36:52;34.70;37.20
1107;DHT22;540;49.448;8.612;2022-08-05T12:39:22;34.60;37.10
1107;DHT22;540;49.448;8.612;2022-08-05T12:41:56;34.60;37.60
1107;DHT22;540;49.448;8.612;2022-08-05T12:44:26;34.60;37.60
1107;DHT22;540;49.448;8.612;2022-08-05T12:46:59;34.70;37.40
1107;DHT22;540;49.448;8.612;2022-08-05T12:49:38;34.70;37.10
1107;DHT22;540;49.448;8.612;2022-08-05T12:52:26;34.30;37.70
1107;DHT22;540;49.448;8.612;2022-08-05T12:55:15;33.80;38.80
1107;DHT22;540;49.448;8.612;2022-08-05T12:57:49;33.30;40.30
1107;DHT22;540;49.448;8.612;2022-08-05T13:00:42;33.50;40.10
1107;DHT22;540;49.448;8.612;2022-08-05T13:03:34;33.50;40.10
1107;DHT22;540;49.448;8.612;2022-08-05T13:06:09;33.70;39.80
1107;DHT22;540;49.448;8.612;2022-08-05T13:08:38;33.70;39.50
1107;DHT22;540;49.448;8.612;2022-08-05T13:11:19;33.70;39.30
1107;DHT22;540;49.448;8.612;2022-08-05T13:14:18;33.60;39.70
1107;DHT22;540;49.448;8.612;2022-08-05T13:16:54;33.70;40.40
1107;DHT22;540;49.448;8.612;2022-08-05T13:19:23;33.40;40.80
1107;DHT22;540;49.448;8.612;2022-08-05T13:21:52;33.10;41.40
1107;DHT22;540;49.448;8.612;2022-08-05T13:24:23;33.00;42.70
1107;DHT22;540;49.448;8.612;2022-08-05T13:27:11;32.60;43.10
1107;DHT22;540;49.448;8.612;2022-08-05T13:29:58;32.80;43.10
1107;DHT22;540;49.448;8.612;2022-08-05T13:32:47;32.80;43.00
1107;DHT22;540;49.448;8.612;2022-08-05T13:35:17;32.40;43.60
1107;DHT22;540;49.448;8.612;2022-08-05T13:37:54;32.40;44.10
1107;DHT22;540;49.448;8.612;2022-08-05T13:40:30;32.60;43.30
1107;DHT22;540;49.448;8.612;2022-08-05T13:43:17;32.90;42.90
1107;DHT22;540;49.448;8.612;2022-08-05T13:45:47;33.10;42.50
1107;DHT22;540;49.448;8.612;2022-08-05T13:48:17;32.80;42.90
1107;DHT22;540;49.448;8.612;2022-08-05T13:51:06;33.10;42.10
1107;DHT22;540;49.448;8.612;2022-08-05T13:53:35;33.40;41.70
1107;DHT22;540;49.448;8.612;2022-08-05T13:56:14;33.60;41.00
1107;DHT22;540;49.448;8.612;2022-08-05T13:58:44;33.80;40.60
1107;DHT22;540;49.448;8.612;2022-08-05T14:01:20;33.90;40.00
1107;DHT22;540;49.448;8.612;2022-08-05T14:04:03;33.70;39.70
1107;DHT22;540;49.448;8.612;2022-08-05T14:06:52;34.00;39.00
1107;DHT22;540;49.448;8.612;2022-08-05T14:09:40;34.10;38.60
1107;DHT22;540;49.448;8.612;2022-08-05T14:12:12;34.20;38.50
1107;DHT22;540;49.448;8.612;2022-08-05T14:14:57;34.20;38.60
1107;DHT22;540;49.448;8.612;2022-08-05T14:17:25;34.50;38.50
1107;DHT22;540;49.448;8.612;2022-08-05T14:19:55;34.60;38.00
1107;DHT22;540;49.448;8.612;2022-08-05T14:22:30;34.40;38.20
1107;DHT22;540;49.448;8.612;2022-08-05T14:25:00;34.40;37.90
1107;DHT22;540;49.448;8.612;2022-08-05T14:27:32;34.40;38.10
1107;DHT22;540;49.448;8.612;2022-08-05T14:30:00;34.50;37.60
1107;DHT22;540;49.448;8.612;2022-08-05T14:32:29;34.40;37.90
1107;DHT22;540;49.448;8.612;2022-08-05T14:34:59;34.20;38.20
1107;DHT22;540;49.448;8.612;2022-08-05T14:37:27;34.20;38.20
1107;DHT22;540;49.448;8.612;2022-08-05T14:40:13;34.20;38.50
1107;DHT22;540;49.448;8.612;2022-08-05T14:42:42;34.10;38.60
1107;DHT22;540;49.448;8.612;2022-08-05T14:45:11;34.00;38.40
1107;DHT22;540;49.448;8.612;2022-08-05T14:47:40;34.00;38.20
1107;DHT22;540;49.448;8.612;2022-08-05T14:50:30;33.90;38.10
1107;DHT22;540;49.448;8.612;2022-08-05T14:52:57;33.50;39.20
1107;DHT22;540;49.448;8.612;2022-08-05T14:55:27;33.50;39.00
1107;DHT22;540;49.448;8.612;2022-08-05T14:58:06;33.70;38.70
1107;DHT22;540;49.448;8.612;2022-08-05T15:00:38;33.70;39.00
1107;DHT22;540;49.448;8.612;2022-08-05T15:03:26;33.50;39.40
1107;DHT22;540;49.448;8.612;2022-08-05T15:06:01;33.20;39.70
1107;DHT22;540;49.448;8.612;2022-08-05T15:08:40;33.20;40.00
1107;DHT22;540;49.448;8.612;2022-08-05T15:11:29;32.90;40.30
1107;DHT22;540;49.448;8.612;2022-08-05T15:14:16;33.00;40.50
1107;DHT22;540;49.448;8.612;2022-08-05T15:17:02;32.80;41.00
1107;DHT22;540;49.448;8.612;2022-08-05T15:19:35;32.80;41.30
1107;DHT22;540;49.448;8.612;2022-08-05T15:22:06;32.60;42.20
1107;DHT22;540;49.448;8.612;2022-08-05T15:24:34;32.50;43.20
1107;DHT22;540;49.448;8.612;2022-08-05T15:27:05;32.20;45.00
1107;DHT22;540;49.448;8.612;2022-08-05T15:29:34;32.00;46.00
1107;DHT22;540;49.448;8.612;2022-08-05T15:32:07;31.50;47.40
1107;DHT22;540;49.448;8.612;2022-08-05T15:34:35;31.50;48.00
1107;DHT22;540;49.448;8.612;2022-08-05T15:37:03;31.40;48.00
1107;DHT22;540;49.448;8.612;2022-08-05T15:39:41;31.40;48.30
1107;DHT22;540;49.448;8.612;2022-08-05T15:42:29;31.10;48.90
1107;DHT22;540;49.448;8.612;2022-08-05T15:45:17;30.80;49.80
1107;DHT22;540;49.448;8.612;2022-08-05T15:48:04;30.40;50.80
1107;DHT22;540;49.448;8.612;2022-08-05T15:50:32;30.40;51.00
1107;DHT22;540;49.448;8.612;2022-08-05T15:53:01;30.20;51.30
1107;DHT22;540;49.448;8.612;2022-08-05T15:55:33;30.10;51.90
1107;DHT22;540;49.448;8.612;2022-08-05T15:58:21;29.80;51.70
1107;DHT22;540;49.448;8.612;2022-08-05T16:00:49;29.80;51.90
1107;DHT22;540;49.448;8.612;2022-08-05T16:03:36;29.80;51.50
1107;DHT22;540;49.448;8.612;2022-08-05T16:06:07;29.60;52.10
1107;DHT22;540;49.448;8.612;2022-08-05T16:08:37;29.70;51.80
1107;DHT22;540;49.448;8.612;2022-08-05T16:11:07;29.60;51.80
1107;DHT22;540;49.448;8.612;2022-08-05T16:13:36;29.30;52.30
1107;DHT22;540;49.448;8.612;2022-08-05T16:16:04;29.30;52.60
1107;DHT22;540;49.448;8.612;2022-08-05T16:18:36;29.20;53.50
1107;DHT22;540;49.448;8.612;2022-08-05T16:21:18;29.00;53.80
1107;DHT22;540;49.448;8.612;2022-08-05T16:24:06;29.00;53.90
1107;DHT22;540;49.448;8.612;2022-08-05T16:26:58;28.80;54.30
1107;DHT22;540;49.448;8.612;2022-08-05T16:29:27;28.60;54.80
1107;DHT22;540;49.448;8.612;2022-08-05T16:32:03;28.40;55.00
1107;DHT22;540;49.448;8.612;2022-08-05T16:34:31;28.30;55.60
1107;DHT22;540;49.448;8.612;2022-08-05T16:36:59;28.10;55.70
1107;DHT22;540;49.448;8.612;2022-08-05T16:39:47;27.90;56.20
1107;DHT22;540;49.448;8.612;2022-08-05T16:42:34;28.00;55.90
1107;DHT22;540;49.448;8.612;2022-08-05T16:45:04;28.30;55.60
1107;DHT22;540;49.448;8.612;2022-08-05T16:47:52;28.10;55.30
1107;DHT22;540;49.448;8.612;2022-08-05T16:50:25;28.20;55.20
1107;DHT22;540;49.448;8.612;2022-08-05T16:52:53;28.20;55.00
1107;DHT22;540;49.448;8.612;2022-08-05T16:55:22;28.30;53.90
1107;DHT22;540;49.448;8.612;2022-08-05T16:57:51;28.20;52.60
1107;DHT22;540;49.448;8.612;2022-08-05T17:00:29;28.00;52.20
1107;DHT22;540;49.448;8.612;2022-08-05T17:03:00;28.00;52.20
1107;DHT22;540;49.448;8.612;2022-08-05T17:05:30;27.80;52.50
1107;DHT22;540;49.448;8.612;2022-08-05T17:08:03;27.60;52.90
1107;DHT22;540;49.448;8.612;2022-08-05T17:10:33;27.60;52.80
1107;DHT22;540;49.448;8.612;2022-08-05T17:13:04;27.60;52.90
1107;DHT22;540;49.448;8.612;2022-08-05T17:15:47;27.40;53.40
1107;DHT22;540;49.448;8.612;2022-08-05T17:18:33;27.20;53.80
1107;DHT22;540;49.448;8.612;2022-08-05T17:21:04;27.10;55.10
1107;DHT22;540;49.448;8.612;2022-08-05T17:23:32;27.00;55.00